createdAt,value
2019-05-30T00:02:02.490Z,6.2
2019-05-30T00:07:02.441Z,6.0
2019-05-30T00:12:01.089Z,6.4
2019-05-30T00:22:01.180Z,6.6
2019-05-30T00:27:02.420Z,6.5
2019-05-30T00:32:01.550Z,6.7
2019-05-30T00:37:02.046Z,6.0
2019-05-30T00:52:02.532Z,5.8
2019-05-30T01:02:01.177Z,5.9
2019-05-30T01:07:01.215Z,5.8
2019-05-30T01:12:01.146Z,5.3
2019-05-30T01:17:01.183Z,5.4
2019-05-30T01:22:01.314Z,5.8
2019-05-30T01:27:01.360Z,6.1
2019-05-30T01:32:01.449Z,6.2
2019-05-30T01:37:01.522Z,6.0
2019-05-30T01:42:01.803Z,6.1
2019-05-30T01:47:01.978Z,5.8
2019-05-30T01:52:06.665Z,5.9
2019-05-30T01:57:06.753Z,5.8
2019-05-30T02:03:01.242Z,6.1
2019-05-30T02:08:01.113Z,5.8
2019-05-30T02:13:01.222Z,6.0
2019-05-30T02:18:01.508Z,6.3
2019-05-30T02:23:03.148Z,6.4
2019-05-30T02:28:02.054Z,6.9
2019-05-30T02:33:02.795Z,7.1
2019-05-30T02:38:02.907Z,6.8
2019-05-30T02:43:01.717Z,6.5
2019-05-30T02:49:02.595Z,6.2
2019-05-30T02:54:01.577Z,6.3
2019-05-30T02:59:01.450Z,6.6
2019-05-30T03:04:01.790Z,7.1
2019-05-30T03:14:02.106Z,7.6
2019-05-30T03:19:01.876Z,7.7
2019-05-30T03:24:02.646Z,7.6
2019-05-30T03:29:02.652Z,7.4
2019-05-30T03:34:04.437Z,7.5
2019-05-30T03:39:01.151Z,7.4
2019-05-30T03:44:01.229Z,7.2
2019-05-30T03:59:01.271Z,7.4
2019-05-30T04:04:01.204Z,7.8
2019-05-30T04:10:01.108Z,7.6
2019-05-30T04:15:01.179Z,7.2
2019-05-30T04:20:01.108Z,7.4
2019-05-30T04:25:01.250Z,7.6
2019-05-30T04:30:01.105Z,7.4
2019-05-30T04:40:01.112Z,7.8
2019-05-30T04:45:01.185Z,7.5
2019-05-30T04:50:01.090Z,6.8
2019-05-30T04:55:01.209Z,6.5
2019-05-30T05:00:01.117Z,6.2
2019-05-30T05:05:01.239Z,5.8
2019-05-30T05:10:01.115Z,6.1
2019-05-30T05:15:01.112Z,6.4
2019-05-30T05:20:01.114Z,6.7
2019-05-30T05:25:01.180Z,6.9
2019-05-30T05:30:01.128Z,7.0
2019-05-30T05:35:01.247Z,7.1
2019-05-30T05:40:01.130Z,6.9
2019-05-30T05:45:02.161Z,6.6
2019-05-30T05:51:01.106Z,7.0
2019-05-30T05:56:01.197Z,7.2
2019-05-30T06:01:01.110Z,7.4
2019-05-30T06:06:01.222Z,7.8
2019-05-30T06:11:01.106Z,8.2
2019-05-30T06:21:01.182Z,8.7
2019-05-30T06:31:01.232Z,9.1
2019-05-30T06:36:01.176Z,9.2
2019-05-30T06:41:01.101Z,9.3
2019-05-30T06:51:01.184Z,9.4
2019-05-30T06:56:01.183Z,9.3
2019-05-30T07:01:01.106Z,9.7
2019-05-30T07:06:01.502Z,10.3
2019-05-30T07:11:01.109Z,10.2
2019-05-30T07:16:01.176Z,10.6
2019-05-30T07:21:01.111Z,11.6
2019-05-30T07:26:03.320Z,12.0
2019-05-30T07:31:01.116Z,12.5
2019-05-30T07:36:01.174Z,13.6
2019-05-30T07:41:01.118Z,14.9
2019-05-30T07:51:01.229Z,16.4
2019-05-30T07:56:01.453Z,16.9
2019-05-30T08:01:01.108Z,18.0
2019-05-30T08:06:01.240Z,18.2
2019-05-30T08:11:09.203Z,18.7
2019-05-30T08:16:01.181Z,20.0
2019-05-30T08:21:01.108Z,21.0
2019-05-30T08:26:01.180Z,21.1
2019-05-30T08:31:01.130Z,22.2
2019-05-30T08:37:01.103Z,24.4
2019-05-30T08:42:01.106Z,23.3
2019-05-30T08:47:01.236Z,23.8
2019-05-30T08:52:01.105Z,24.6
2019-05-30T08:57:01.177Z,24.1
2019-05-30T09:02:01.108Z,23.7
2019-05-30T09:07:01.178Z,24.5
2019-05-30T09:12:01.112Z,24.7
2019-05-30T09:17:01.239Z,24.0
2019-05-30T09:22:01.116Z,25.6
2019-05-30T09:27:01.180Z,25.8
2019-05-30T09:32:01.116Z,26.6
2019-05-30T09:37:01.190Z,27.3
2019-05-30T09:42:01.118Z,28.3
2019-05-30T09:47:01.107Z,27.2
2019-05-30T09:57:01.241Z,26.1
2019-05-30T10:02:01.131Z,25.5
2019-05-30T10:07:01.186Z,25.4
2019-05-30T10:12:01.109Z,25.2
2019-05-30T10:22:01.129Z,26.2
2019-05-30T10:27:01.233Z,27.5
2019-05-30T10:32:01.103Z,28.9
2019-05-30T10:37:01.171Z,30.8
2019-05-30T10:42:01.109Z,32.2
2019-05-30T10:47:01.170Z,33.8
2019-05-30T10:52:01.111Z,35.0
2019-05-30T10:57:02.182Z,35.3
2019-05-30T11:02:01.120Z,37.4
2019-05-30T11:07:10.279Z,38.4
2019-05-30T11:12:01.102Z,38.6
2019-05-30T11:17:01.108Z,39.2
2019-05-30T11:22:01.117Z,41.0
2019-05-30T11:27:01.176Z,40.4
2019-05-30T11:32:01.133Z,40.2
2019-05-30T11:37:15.898Z,41.0
2019-05-30T11:42:01.123Z,41.3
2019-05-30T11:47:01.214Z,41.5
2019-05-30T11:52:01.115Z,43.0
2019-05-30T11:57:01.174Z,43.9
2019-05-30T12:07:01.240Z,43.8
2019-05-30T12:17:06.259Z,42.0
2019-05-30T12:22:02.062Z,41.4
2019-05-30T12:27:06.172Z,41.6
2019-05-30T12:37:06.187Z,40.6
2019-05-30T12:42:06.115Z,41.3
2019-05-30T12:52:01.132Z,40.3
2019-05-30T12:57:01.180Z,39.7
2019-05-30T13:02:01.334Z,39.4
2019-05-30T13:07:01.355Z,38.6
2019-05-30T13:12:02.255Z,38.4
2019-05-30T13:17:01.907Z,36.8
2019-05-30T13:22:01.435Z,35.0
2019-05-30T13:27:01.778Z,32.8
2019-05-30T13:32:02.512Z,31.8
2019-05-30T13:37:01.174Z,31.4
2019-05-30T13:42:01.620Z,33.7
2019-05-30T13:47:02.415Z,34.8
2019-05-30T13:52:01.120Z,37.6
2019-05-30T13:57:01.636Z,39.2
2019-05-30T14:02:01.858Z,39.6
2019-05-30T14:07:02.234Z,39.0
2019-05-30T14:12:02.295Z,39.1
2019-05-30T14:17:01.179Z,38.6
2019-05-30T14:22:01.247Z,40.3
2019-05-30T14:27:01.426Z,41.1
2019-05-30T14:32:02.260Z,41.7
2019-05-30T14:37:02.362Z,42.7
2019-05-30T14:42:01.115Z,43.5
2019-05-30T14:47:01.179Z,42.1
2019-05-30T14:52:01.119Z,42.6
2019-05-30T14:57:01.171Z,43.8
2019-05-30T15:02:01.111Z,43.3
2019-05-30T15:07:01.240Z,42.9
2019-05-30T15:12:01.109Z,42.4
2019-05-30T15:17:01.182Z,42.0
2019-05-30T15:22:01.111Z,40.8
2019-05-30T15:27:01.189Z,42.6
2019-05-30T15:37:01.118Z,44.2
2019-05-30T15:42:01.119Z,45.1
2019-05-30T15:47:01.250Z,44.2
2019-05-30T15:52:01.110Z,43.5
2019-05-30T16:02:01.245Z,41.4
2019-05-30T16:07:01.179Z,39.2
2019-05-30T16:12:01.116Z,39.0
2019-05-30T16:17:02.048Z,37.2
2019-05-30T16:22:01.106Z,36.9
2019-05-30T16:27:01.180Z,35.3
2019-05-30T16:32:01.117Z,34.3
2019-05-30T16:37:01.179Z,33.1
2019-05-30T16:42:01.116Z,32.4
2019-05-30T16:47:01.247Z,31.0
2019-05-30T16:52:01.119Z,31.1
2019-05-30T16:57:01.251Z,30.8
2019-05-30T17:02:01.116Z,31.1
2019-05-30T17:07:01.171Z,29.8
2019-05-30T17:12:01.115Z,28.0
2019-05-30T17:17:02.956Z,27.8
2019-05-30T17:22:01.120Z,28.5
2019-05-30T17:27:01.246Z,27.4
2019-05-30T17:32:01.119Z,27.9
2019-05-30T17:37:01.185Z,27.7
2019-05-30T17:47:01.203Z,26.6
2019-05-30T17:52:01.119Z,27.0
2019-05-30T17:57:01.180Z,26.5
2019-05-30T18:02:01.147Z,27.4
2019-05-30T18:07:01.249Z,26.9
2019-05-30T18:12:01.117Z,25.1
2019-05-30T18:17:01.183Z,23.8
2019-05-30T18:22:01.133Z,25.1
2019-05-30T18:27:01.134Z,26.3
2019-05-30T18:37:01.174Z,29.2
2019-05-30T18:42:01.115Z,30.1
2019-05-30T18:47:01.243Z,29.9
2019-05-30T18:52:01.124Z,29.2
2019-05-30T18:57:01.185Z,28.6
2019-05-30T19:02:01.117Z,27.6
2019-05-30T19:07:01.169Z,28.1
2019-05-30T19:12:01.112Z,27.2
2019-05-30T19:17:01.235Z,25.8
2019-05-30T19:22:01.111Z,26.8
2019-05-30T19:27:01.176Z,26.0
2019-05-30T19:42:01.179Z,26.8
2019-05-30T19:47:01.104Z,27.0
2019-05-30T19:52:01.114Z,28.2
2019-05-30T19:57:01.111Z,27.2
2019-05-30T20:02:01.109Z,27.8
2019-05-30T20:07:01.111Z,28.5
2019-05-30T20:12:03.914Z,27.8
2019-05-30T20:17:01.116Z,29.5
2019-05-30T20:22:01.113Z,30.6
2019-05-30T20:27:01.760Z,31.4
2019-05-30T20:32:01.124Z,31.8
2019-05-30T20:37:01.118Z,33.6
2019-05-30T20:43:06.176Z,32.2
2019-05-30T20:48:01.111Z,32.6
2019-05-30T20:53:01.242Z,32.1
2019-05-30T20:58:01.113Z,31.9
2019-05-30T21:03:01.181Z,32.3
2019-05-30T21:08:01.114Z,32.1
2019-05-30T21:13:01.184Z,33.0
2019-05-30T21:18:01.126Z,34.3
2019-05-30T21:23:01.203Z,33.7
2019-05-30T21:28:01.140Z,31.8
2019-05-30T21:33:01.267Z,30.1
2019-05-30T21:43:06.213Z,29.4
2019-05-30T21:48:01.078Z,30.4
2019-05-30T21:53:01.242Z,31.5
2019-05-30T21:58:01.123Z,33.4
2019-05-30T22:03:01.250Z,32.9
2019-05-30T22:08:01.078Z,33.7
2019-05-30T22:13:09.122Z,32.8
2019-05-30T22:18:01.538Z,32.0
2019-05-30T22:23:01.177Z,32.4
2019-05-30T22:28:01.113Z,32.7
2019-05-30T22:33:01.246Z,31.5
2019-05-30T22:38:01.124Z,32.0
2019-05-30T22:43:01.233Z,32.7
2019-05-30T22:48:01.130Z,32.2
2019-05-30T22:53:01.170Z,31.7
2019-05-30T22:58:01.108Z,32.3
2019-05-30T23:03:01.171Z,32.8
2019-05-30T23:08:01.115Z,33.4
2019-05-30T23:13:01.286Z,33.5
2019-05-30T23:18:01.113Z,32.7
2019-05-30T23:23:01.183Z,31.4
2019-05-30T23:28:01.124Z,31.6
2019-05-30T23:33:01.170Z,30.4
2019-05-30T23:38:01.111Z,29.5
2019-05-30T23:43:01.109Z,30.2
2019-05-30T23:48:01.110Z,31.7
2019-05-30T23:53:02.133Z,30.6
2019-05-30T23:58:01.116Z,31.9
